logo
Rechercher aéroport 
image banner adimage banner adimage banner ad
image banner ad

OPSD - Skardu Int'l

Situé à Skardu, Pakistan

ICAO - OPSD, IATA - KDU

Données fournies par Airmate  

Information générale

Coordonnées: N35°20'22" E75°32'29"
Élévation : 7301 feet MSL.
 
Voir autres Aéroports à Northern Areas

Données opérationnelles

Special qualification required
Heure actuelle UTC:
Heure actuelle locale:
Météo à : - ( 0 km )
METAR: UUOK 172031Z AUTO 23004MPS 7000 ///009/// 19/18 Q1009 RMK QFE739/0986
Voir NOTAMs / SUP AIP / TFR affectant cet aéroport [VIEW]
Fréquences de communication: [VIEW]

Pistes:

Identifiant RWYQFULongueur (ft)Largeur (ft)SurfaceLDA (ft)
14L147°1199898UNK
32R327°1199898UNK
14R147°11995148UNK
32L327°11995148UNK

Coordonnées de l'aéroport

Adresse: Skardu Pakistan

Vue satellite de OPSD